Time;durP1;ratioP1;P1;durP2;ratioP2;P2;SDS_P1;SDS_P2;PMS_P1;PMS_P2;Temp;Humidity;BMP_temperature;BMP_pressure;BME280_temperature;BME280_humidity;BME280_pressure;Samples;Min_cycle;Max_cycle;Signal;HPM_P1;HPM_P2
2021/05/03 00:00:14;;;;;;;6.00;3.30;;;;;;;18.57;51.56;100251.50;2062584;28;20641;-64
2021/05/03 00:01:15;;;;;;;3.90;2.97;;;;;;;18.56;51.54;100253.38;2060132;28;20120;-63
2021/05/03 00:02:16;;;;;;;4.03;2.93;;;;;;;18.57;51.52;100248.75;2062936;28;20097;-63
2021/05/03 00:03:16;;;;;;;4.10;3.30;;;;;;;18.56;51.46;100253.38;2059222;28;20138;-64
2021/05/03 00:04:17;;;;;;;3.23;2.93;;;;;;;18.57;51.54;100251.50;2062571;28;20034;-64
2021/05/03 00:05:24;;;;;;;4.87;3.43;;;;;;;18.55;51.58;100254.38;2062292;28;20041;-64
2021/05/03 00:06:24;;;;;;;3.80;3.10;;;;;;;18.55;51.61;100251.66;2062202;28;20068;-64
2021/05/03 00:07:25;;;;;;;4.37;3.33;;;;;;;18.54;51.47;100257.25;2062726;28;20030;-64
2021/05/03 00:08:26;;;;;;;3.57;2.83;;;;;;;18.55;51.53;100245.34;2062165;28;20401;-64
2021/05/03 00:09:26;;;;;;;3.57;2.90;;;;;;;18.54;51.48;100249.91;2062752;28;20417;-64
2021/05/03 00:10:26;;;;;;;4.50;3.30;;;;;;;18.55;51.66;100253.53;2061697;28;20030;-65
2021/05/03 00:11:27;;;;;;;3.17;2.87;;;;;;;18.55;51.44;100253.53;2062345;28;20030;-64
2021/05/03 00:12:27;;;;;;;4.73;3.53;;;;;;;18.53;51.39;100250.94;2062723;28;20031;-64
2021/05/03 00:13:28;;;;;;;4.43;3.20;;;;;;;18.53;51.57;100250.94;2062013;28;20785;-64
2021/05/03 00:14:28;;;;;;;3.70;3.23;;;;;;;18.53;51.44;100258.28;2060885;28;20030;-64
2021/05/03 00:15:29;;;;;;;3.60;2.90;;;;;;;18.54;51.38;100249.91;2062067;28;20033;-64
2021/05/03 00:16:29;;;;;;;3.97;3.27;;;;;;;18.55;51.53;100253.53;2062042;28;20037;-64
2021/05/03 00:17:30;;;;;;;3.50;2.63;;;;;;;18.55;51.47;100256.25;2061016;28;20026;-64
2021/05/03 00:18:30;;;;;;;3.57;2.80;;;;;;;18.54;51.39;100254.53;2057516;28;20038;-64
2021/05/03 00:19:31;;;;;;;3.93;3.13;;;;;;;18.56;51.36;100252.50;2058132;28;20034;-64
2021/05/03 00:20:31;;;;;;;4.00;3.30;;;;;;;18.57;51.33;100249.66;2062249;28;20114;-64
2021/05/03 00:21:32;;;;;;;3.00;2.70;;;;;;;18.57;51.42;100255.13;2059948;28;20065;-64
2021/05/03 00:22:33;;;;;;;3.90;2.83;;;;;;;18.59;51.44;100252.22;2062625;28;20054;-64
2021/05/03 00:23:33;;;;;;;3.70;2.90;;;;;;;18.58;51.45;100250.50;2062022;28;20405;-64
2021/05/03 00:24:34;;;;;;;3.70;2.97;;;;;;;18.59;51.38;100246.75;2059270;28;20834;-64
2021/05/03 00:25:34;;;;;;;4.03;2.70;;;;;;;18.59;51.30;100252.22;2062553;28;20035;-64
2021/05/03 00:26:35;;;;;;;5.50;3.27;;;;;;;18.59;51.33;100258.56;2059222;28;20050;-64
2021/05/03 00:27:35;;;;;;;4.30;3.20;;;;;;;18.60;51.42;100256.69;2060556;28;20030;-64
2021/05/03 00:28:36;;;;;;;3.40;2.77;;;;;;;18.59;51.50;100252.22;2062583;28;20771;-64
2021/05/03 00:29:36;;;;;;;4.60;3.10;;;;;;;18.58;51.51;100255.97;2061650;28;20623;-64
2021/05/03 00:30:36;;;;;;;4.03;2.70;;;;;;;18.60;51.38;100251.22;2062805;28;20057;-64
2021/05/03 00:31:38;;;;;;;3.73;2.77;;;;;;;18.60;51.46;100251.22;2060121;28;20018;-64
2021/05/03 00:32:38;;;;;;;4.72;2.63;;;;;;;18.61;51.39;100255.69;2062501;28;20034;-64
2021/05/03 00:33:39;;;;;;;4.00;3.60;;;;;;;18.61;51.32;100252.94;2061512;28;20543;-64
2021/05/03 00:34:40;;;;;;;4.73;2.67;;;;;;;18.61;51.43;100255.69;2062108;28;20026;-64
2021/05/03 00:35:40;;;;;;;4.10;2.97;;;;;;;18.62;51.38;100257.41;2060896;28;20055;-64
2021/05/03 00:36:41;;;;;;;4.00;2.70;;;;;;;18.61;51.45;100252.94;2061808;28;20041;-64
2021/05/03 00:37:42;;;;;;;5.73;3.20;;;;;;;18.61;51.47;100253.81;2055139;28;20030;-64
2021/05/03 00:38:42;;;;;;;3.27;2.60;;;;;;;18.61;51.47;100256.53;2056615;28;20031;-64
2021/05/03 00:39:43;;;;;;;3.10;2.70;;;;;;;18.62;51.35;100250.09;2059718;28;20049;-64
2021/05/03 00:40:43;;;;;;;4.20;3.27;;;;;;;18.62;51.23;100251.97;2059509;28;20113;-64
2021/05/03 00:41:44;;;;;;;4.50;2.87;;;;;;;18.61;51.30;100251.06;2057605;28;20466;-64
2021/05/03 00:42:44;;;;;;;4.03;2.90;;;;;;;18.62;51.29;100254.69;2062004;28;20045;-64
2021/05/03 00:43:45;;;;;;;3.93;2.87;;;;;;;18.64;51.10;100260.84;2056232;28;20536;-64
2021/05/03 00:44:45;;;;;;;3.23;2.70;;;;;;;18.64;51.11;100249.91;2062137;28;20034;-64
2021/05/03 00:45:47;;;;;;;5.67;3.47;;;;;;;18.62;50.99;100246.50;2062694;28;20117;-64
2021/05/03 00:46:47;;;;;;;12.20;3.83;;;;;;;18.62;51.07;100251.97;2062256;28;20037;-64
2021/05/03 00:47:48;;;;;;;4.80;3.67;;;;;;;18.62;51.06;100254.69;2062433;28;20100;-64
2021/05/03 00:48:49;;;;;;;4.70;2.73;;;;;;;18.62;50.89;100260.16;2061613;28;20350;-64
2021/05/03 00:49:49;;;;;;;3.80;3.00;;;;;;;18.61;50.92;100253.81;2062110;28;20026;-64
2021/05/03 00:50:50;;;;;;;4.10;2.57;;;;;;;18.63;50.90;100261.84;2062868;28;20030;-64
2021/05/03 00:51:52;;;;;;;4.68;3.17;;;;;;;18.62;51.00;100258.28;2058997;28;20392;-64
2021/05/03 00:52:52;;;;;;;5.45;3.45;;;;;;;18.62;50.91;100260.16;2061512;28;20034;-64
2021/05/03 00:53:53;;;;;;;3.53;2.90;;;;;;;18.61;50.95;100256.53;2061786;28;20426;-64
2021/05/03 00:54:53;;;;;;;3.97;3.37;;;;;;;18.61;50.91;100255.69;2062332;28;20036;-63
2021/05/03 00:55:54;;;;;;;6.77;3.60;;;;;;;18.60;50.95;100256.69;2053942;28;20461;-64
2021/05/03 00:56:54;;;;;;;3.30;2.87;;;;;;;18.61;50.80;100255.69;2060640;28;20038;-64
2021/05/03 00:57:55;;;;;;;4.20;3.13;;;;;;;18.61;50.84;100252.94;2069368;28;20109;-64
2021/05/03 00:58:56;;;;;;;4.73;3.00;;;;;;;18.62;50.87;100251.97;2058825;28;20388;-64
2021/05/03 00:59:56;;;;;;;3.43;2.97;;;;;;;18.62;50.79;100251.97;2060043;28;20023;-64
2021/05/03 01:00:57;;;;;;;4.57;3.33;;;;;;;18.61;50.86;100250.22;2060706;28;20022;-64
2021/05/03 01:01:57;;;;;;;3.93;3.13;;;;;;;18.60;51.05;100259.44;2061903;28;20482;-64
2021/05/03 01:02:59;;;;;;;3.67;3.13;;;;;;;18.59;51.05;100257.69;2061104;28;20018;-64
2021/05/03 01:03:59;;;;;;;3.78;2.90;;;;;;;18.59;50.96;100257.69;2054710;28;20026;-64
2021/05/03 01:05:00;;;;;;;3.30;2.70;;;;;;;18.60;51.05;100257.56;2060234;28;21189;-64
2021/05/03 01:06:01;;;;;;;5.67;2.70;;;;;;;18.58;50.89;100256.81;2062003;28;20508;-64
2021/05/03 01:07:01;;;;;;;3.83;2.70;;;;;;;18.58;50.92;100255.97;2061813;28;20034;-64
2021/05/03 01:08:03;;;;;;;5.63;2.93;;;;;;;18.58;50.93;100255.97;2061087;28;20125;-64
2021/05/03 01:09:05;;;;;;;4.10;3.38;;;;;;;18.56;50.92;100258.81;2061482;28;20026;-64
2021/05/03 01:10:05;;;;;;;3.88;3.22;;;;;;;18.57;51.03;100254.22;2062030;28;20026;-64
2021/05/03 01:11:06;;;;;;;3.53;2.90;;;;;;;18.58;50.98;100256.81;2060075;28;20058;-64
2021/05/03 01:12:08;;;;;;;4.20;2.80;;;;;;;18.57;51.04;100256.97;2063708;28;20034;-64
2021/05/03 01:13:08;;;;;;;;;;;;;;;18.51;50.96;100261.13;2061796;28;20165;-64
2021/05/03 01:14:09;;;;;;;4.72;2.67;;;;;;;18.53;50.97;100255.53;2063845;28;19914;-64
2021/05/03 01:15:11;;;;;;;3.97;2.80;;;;;;;18.53;51.02;100261.84;2063030;28;20022;-64
2021/05/03 01:16:11;;;;;;;3.35;2.60;;;;;;;18.52;51.16;100254.69;2063920;28;20030;-64
2021/05/03 01:17:12;;;;;;;3.60;2.93;;;;;;;18.53;51.15;100258.28;2062643;28;20030;-63
2021/05/03 01:18:12;;;;;;;3.80;3.20;;;;;;;18.53;51.04;100248.22;2064042;28;20042;-64
2021/05/03 01:19:13;;;;;;;3.70;2.77;;;;;;;18.54;51.06;100257.25;2063442;28;20054;-63
2021/05/03 01:20:15;;;;;;;6.97;2.77;;;;;;;18.55;51.05;100250.81;2063411;28;20022;-64
2021/05/03 01:21:23;;;;;;;3.83;3.00;;;;;;;18.53;51.07;100252.81;2060344;28;20042;-63
2021/05/03 01:22:24;;;;;;;5.43;3.00;;;;;;;18.53;51.06;100252.81;2060879;28;20077;-64
2021/05/03 01:23:24;;;;;;;5.20;2.90;;;;;;;18.52;51.19;100251.06;2063278;28;20042;-64
2021/05/03 01:24:25;;;;;;;2.87;2.57;;;;;;;18.52;51.17;100251.94;2061876;28;20025;-64
2021/05/03 01:25:31;;;;;;;3.13;2.77;;;;;;;18.51;51.23;100254.81;2063311;28;20058;-64
2021/05/03 01:26:31;;;;;;;5.25;3.13;;;;;;;18.53;51.21;100250.06;2055827;28;20045;-65
2021/05/03 01:27:34;;;;;;;3.63;3.13;;;;;;;18.51;51.28;100247.47;2060853;28;20139;-64
2021/05/03 01:28:34;;;;;;;10.57;3.35;;;;;;;18.51;51.22;100250.22;2061259;28;20069;-64
2021/05/03 01:29:35;;;;;;;4.83;3.20;;;;;;;18.50;51.39;100247.63;2063044;28;20548;-64
2021/05/03 01:30:38;;;;;;;3.30;2.60;;;;;;;18.48;51.27;100247.78;2064055;28;20486;-64
2021/05/03 01:31:39;;;;;;;3.58;2.88;;;;;;;18.49;51.39;100245.91;2059614;28;20026;-64
2021/05/03 01:32:40;;;;;;;4.33;3.03;;;;;;;18.50;51.34;100253.09;2070138;28;20046;-64
2021/05/03 01:33:41;;;;;;;3.08;2.45;;;;;;;18.49;51.26;100251.34;2068479;28;20033;-64
2021/05/03 01:34:42;;;;;;;3.77;3.07;;;;;;;18.50;51.23;100253.09;2063069;28;20103;-63
2021/05/03 01:35:45;;;;;;;4.15;2.80;;;;;;;18.49;51.48;100254.94;2063972;28;20030;-64
2021/05/03 01:36:47;;;;;;;3.65;2.60;;;;;;;18.48;51.49;100245.03;2063623;28;20030;-64
2021/05/03 01:37:52;;;;;;;3.53;2.70;;;;;;;18.48;51.41;100249.66;2063300;28;20521;-64
2021/05/03 01:38:53;;;;;;;3.95;2.42;;;;;;;18.49;51.34;100251.34;2063366;28;20092;-64
2021/05/03 01:39:53;;;;;;;3.83;3.10;;;;;;;18.48;51.32;100255.97;2062753;28;20049;-64
2021/05/03 01:40:54;;;;;;;4.97;3.20;;;;;;;18.47;51.46;100246.06;2059430;28;20118;-64
2021/05/03 01:41:54;;;;;;;3.40;2.97;;;;;;;18.48;51.25;100249.66;2061227;28;20034;-64
2021/05/03 01:42:56;;;;;;;3.70;2.73;;;;;;;18.48;51.33;100249.66;2062105;28;20049;-64
2021/05/03 01:43:56;;;;;;;3.60;2.95;;;;;;;18.49;51.17;100245.91;2063072;28;20031;-64
2021/05/03 01:45:01;;;;;;;3.30;2.77;;;;;;;18.48;51.23;100252.38;2062481;28;20084;-64
2021/05/03 01:46:03;;;;;;;4.47;2.88;;;;;;;18.49;51.02;100245.91;2063241;28;20041;-64
2021/05/03 01:47:04;;;;;;;3.15;2.67;;;;;;;18.50;51.08;100247.63;2061986;28;20062;-64
2021/05/03 01:48:05;;;;;;;3.33;2.58;;;;;;;18.51;51.14;100238.44;2055673;28;20073;-64
2021/05/03 01:49:08;;;;;;;3.88;2.70;;;;;;;18.50;51.21;100244.91;2062727;28;20482;-63
2021/05/03 01:50:09;;;;;;;3.30;2.70;;;;;;;18.51;51.30;100249.34;2062842;28;20026;-64
2021/05/03 01:51:10;;;;;;;4.82;2.95;;;;;;;18.52;51.34;100245.59;2063522;28;20108;-64
2021/05/03 01:52:11;;;;;;;3.23;2.70;;;;;;;18.53;51.29;100245.47;2059554;28;20109;-64
2021/05/03 01:53:11;;;;;;;4.27;3.17;;;;;;;18.54;51.17;100243.59;2059739;28;20041;-64
2021/05/03 01:54:12;;;;;;;3.80;2.67;;;;;;;18.54;51.13;100244.47;2062602;28;20076;-64
2021/05/03 01:55:13;;;;;;;3.83;2.50;;;;;;;18.53;51.12;100247.34;2063340;28;20414;-64
2021/05/03 01:56:15;;;;;;;2.85;2.55;;;;;;;18.54;51.29;100249.06;2063199;28;20068;-64
2021/05/03 01:57:17;;;;;;;;;;;;;;;18.49;51.16;100245.91;2063293;28;20097;-64
2021/05/03 01:58:17;;;;;;;5.55;2.92;;;;;;;18.50;51.22;100242.19;2061977;28;19914;-64
2021/05/03 01:59:18;;;;;;;3.73;2.67;;;;;;;18.51;51.46;100244.75;2055638;28;20165;-64
2021/05/03 02:00:19;;;;;;;3.50;2.53;;;;;;;18.52;51.37;100253.78;2059656;28;20462;-64
2021/05/03 02:01:20;;;;;;;5.30;2.70;;;;;;;18.50;51.42;100248.50;2062868;28;20536;-64
2021/05/03 02:02:20;;;;;;;4.77;2.40;;;;;;;18.52;51.32;100245.59;2056499;28;20502;-64
2021/05/03 02:03:23;;;;;;;4.80;3.47;;;;;;;18.52;51.14;100251.06;2059579;28;20033;-64
2021/05/03 02:04:24;;;;;;;4.28;2.75;;;;;;;18.52;51.28;100251.06;2063663;28;20623;-64
2021/05/03 02:05:26;;;;;;;3.70;2.50;;;;;;;18.52;51.16;100251.06;2059449;28;20031;-63
2021/05/03 02:06:26;;;;;;;4.18;2.25;;;;;;;18.55;51.20;100256.25;2056296;28;20474;-64
2021/05/03 02:07:27;;;;;;;3.63;2.53;;;;;;;18.54;51.43;100259.97;2063246;28;20053;-64
2021/05/03 02:08:27;;;;;;;3.63;2.73;;;;;;;18.54;51.22;100259.97;2063134;28;20038;-64
2021/05/03 02:09:28;;;;;;;3.87;2.53;;;;;;;18.53;51.02;100258.28;2063505;28;20717;-64
2021/05/03 02:10:29;;;;;;;6.87;3.43;;;;;;;18.53;51.16;100252.81;2062221;28;20102;-64
2021/05/03 02:11:30;;;;;;;3.40;2.80;;;;;;;18.55;50.94;100254.38;2063522;28;20026;-64
2021/05/03 02:12:30;;;;;;;3.90;2.67;;;;;;;18.55;51.00;100261.72;2062506;28;20513;-64
2021/05/03 02:13:33;;;;;;;3.50;2.63;;;;;;;18.54;51.07;100254.53;2061856;28;20073;-64
2021/05/03 02:14:35;;;;;;;4.15;2.72;;;;;;;18.55;50.95;100259.00;2057220;28;20030;-64
2021/05/03 02:15:37;;;;;;;3.22;2.70;;;;;;;18.53;50.92;100261.00;2060207;28;20098;-64
2021/05/03 02:16:38;;;;;;;4.40;2.60;;;;;;;18.55;50.84;100257.13;2063131;28;20026;-64
2021/05/03 02:17:38;;;;;;;3.63;2.80;;;;;;;18.53;50.95;100258.28;2063159;28;20023;-64
2021/05/03 02:18:39;;;;;;;3.73;2.33;;;;;;;18.54;50.81;100262.72;2062716;28;20109;-64
2021/05/03 02:19:39;;;;;;;3.03;2.40;;;;;;;18.52;50.97;100261.97;2059937;28;20109;-64
2021/05/03 02:20:40;;;;;;;3.20;2.80;;;;;;;18.53;50.86;100261.84;2051794;28;20894;-64
2021/05/03 02:21:41;;;;;;;4.30;2.97;;;;;;;18.53;50.79;100261.00;2053966;28;20034;-64
2021/05/03 02:22:41;;;;;;;2.60;2.27;;;;;;;18.53;50.81;100264.59;2066327;28;20037;-64
2021/05/03 02:23:42;;;;;;;3.37;2.63;;;;;;;18.52;50.84;100267.44;2061314;28;20512;-65
2021/05/03 02:24:42;;;;;;;3.37;2.83;;;;;;;18.52;50.78;100261.97;2060757;28;20037;-63
2021/05/03 02:25:43;;;;;;;4.20;2.70;;;;;;;18.52;51.04;100259.25;2062703;28;20474;-64
2021/05/03 02:26:43;;;;;;;3.47;2.80;;;;;;;18.51;50.92;100258.41;2057531;28;20043;-65
2021/05/03 02:27:44;;;;;;;3.80;2.47;;;;;;;18.53;50.82;100258.28;2061746;28;20042;-63
2021/05/03 02:28:44;;;;;;;3.30;2.70;;;;;;;18.52;50.90;100256.53;2066761;28;20121;-64
2021/05/03 02:29:45;;;;;;;4.50;3.03;;;;;;;18.51;50.95;100260.28;2062387;28;20116;-64
2021/05/03 02:30:45;;;;;;;4.30;2.47;;;;;;;18.50;51.06;100258.56;2062521;28;20038;-64
2021/05/03 02:31:46;;;;;;;3.53;2.93;;;;;;;18.51;50.97;100265.72;2062401;28;20041;-64
2021/05/03 02:32:47;;;;;;;3.73;2.67;;;;;;;18.51;50.87;100265.72;2063200;28;20045;-64
2021/05/03 02:33:47;;;;;;;4.90;2.90;;;;;;;18.51;50.76;100266.59;2063015;28;20080;-64
2021/05/03 02:34:48;;;;;;;4.60;2.70;;;;;;;18.50;50.82;100269.47;2062199;28;20065;-64
2021/05/03 02:35:50;;;;;;;3.33;2.33;;;;;;;18.49;50.82;100274.06;2060291;28;20096;-64
2021/05/03 02:36:55;;;;;;;3.70;2.83;;;;;;;18.50;50.79;100264.88;2063184;28;20481;-64
2021/05/03 02:38:00;;;;;;;3.33;2.67;;;;;;;18.49;50.96;100268.59;2063385;28;20053;-64
2021/05/03 02:39:01;;;;;;;3.38;2.60;;;;;;;18.49;50.88;100267.72;2056621;28;20122;-64
2021/05/03 02:40:03;;;;;;;3.43;2.77;;;;;;;18.49;50.89;100274.06;2062399;28;20034;-64
2021/05/03 02:41:03;;;;;;;3.45;2.47;;;;;;;18.50;50.77;100274.94;2063179;28;20034;-64
2021/05/03 02:42:04;;;;;;;3.30;2.40;;;;;;;18.48;50.73;100268.75;2063202;28;20034;-65
2021/05/03 02:43:05;;;;;;;2.80;2.40;;;;;;;18.48;50.88;100268.75;2062476;28;20038;-64
2021/05/03 02:44:06;;;;;;;3.93;2.77;;;;;;;18.49;50.67;100270.47;2062403;28;20277;-64
2021/05/03 02:45:07;;;;;;;3.00;2.43;;;;;;;18.48;50.75;100266.88;2061852;28;20417;-64
2021/05/03 02:46:08;;;;;;;6.45;2.75;;;;;;;18.48;50.89;100268.75;2063355;28;20068;-64
2021/05/03 02:47:09;;;;;;;3.20;2.40;;;;;;;18.48;50.86;100276.94;2062949;28;20032;-64
2021/05/03 02:48:10;;;;;;;3.42;2.60;;;;;;;18.47;50.82;100281.53;2063097;28;20445;-64
2021/05/03 02:49:10;;;;;;;4.20;2.67;;;;;;;18.48;51.10;100276.94;2062844;28;20066;-64
2021/05/03 02:50:14;;;;;;;3.63;2.77;;;;;;;18.47;50.79;100286.13;2061263;28;20030;-64
2021/05/03 02:51:14;;;;;;;2.72;2.47;;;;;;;18.47;50.90;100280.66;2055098;28;20057;-64
2021/05/03 02:52:15;;;;;;;4.53;2.60;;;;;;;18.45;50.95;100272.63;2059319;28;20144;-64
2021/05/03 02:53:15;;;;;;;3.57;2.87;;;;;;;18.45;50.79;100279.94;2058415;28;20048;-64
2021/05/03 02:54:16;;;;;;;3.50;2.83;;;;;;;18.45;51.01;100282.66;2060672;28;20026;-64
2021/05/03 02:55:17;;;;;;;5.73;2.53;;;;;;;18.45;51.00;100282.66;2062321;28;20516;-65
2021/05/03 02:56:18;;;;;;;;;;;;;;;18.39;50.82;100274.03;2062904;28;20065;-64
2021/05/03 02:57:18;;;;;;;3.20;2.25;;;;;;;18.40;50.95;100275.78;2063093;28;19968;-64
2021/05/03 02:58:19;;;;;;;3.03;2.47;;;;;;;18.41;50.82;100282.94;2062759;28;20042;-64
2021/05/03 02:59:20;;;;;;;3.27;2.63;;;;;;;18.42;51.04;100284.69;2061169;28;20070;-63
2021/05/03 03:00:31;;;;;;;3.97;3.53;;;;;;;18.41;51.16;100277.50;2060514;28;20084;-64
2021/05/03 03:01:32;;;;;;;3.50;2.53;;;;;;;18.40;50.97;100281.25;2062853;28;20034;-64
2021/05/03 03:02:33;;;;;;;3.10;2.43;;;;;;;18.41;51.06;100282.94;2062396;28;20555;-64
2021/05/03 03:03:33;;;;;;;3.43;2.40;;;;;;;18.41;50.80;100277.50;2062110;28;20036;-64
2021/05/03 03:04:33;;;;;;;4.00;2.40;;;;;;;18.40;50.85;100281.25;2062896;28;20072;-64
2021/05/03 03:05:34;;;;;;;3.13;2.43;;;;;;;18.41;50.90;100272.03;2062600;28;20042;-64
2021/05/03 03:06:34;;;;;;;3.73;2.30;;;;;;;18.42;50.75;100272.88;2063246;28;20096;-64
2021/05/03 03:07:35;;;;;;;2.63;2.37;;;;;;;18.43;50.81;100275.50;2062548;28;20403;-64
2021/05/03 03:08:35;;;;;;;3.70;2.90;;;;;;;18.43;50.86;100264.56;2062903;28;20097;-64
2021/05/03 03:09:36;;;;;;;4.33;2.67;;;;;;;18.45;51.06;100274.47;2058969;28;20065;-64
2021/05/03 03:10:36;;;;;;;3.53;2.43;;;;;;;18.42;51.08;100279.25;2058684;28;20424;-65
2021/05/03 03:11:38;;;;;;;3.73;2.47;;;;;;;18.43;50.89;100272.75;2062883;28;20292;-64
2021/05/03 03:12:38;;;;;;;3.13;2.47;;;;;;;18.43;50.97;100272.75;2058618;28;20050;-64
2021/05/03 03:13:38;;;;;;;2.80;2.47;;;;;;;18.47;51.08;100275.19;2062335;28;20026;-64
2021/05/03 03:14:41;;;;;;;3.37;2.60;;;;;;;18.46;51.01;100268.03;2062518;28;20026;-64
2021/05/03 03:15:41;;;;;;;3.95;2.30;;;;;;;18.46;50.94;100284.41;2062990;28;20468;-64
2021/05/03 03:16:42;;;;;;;3.27;2.67;;;;;;;18.45;51.14;100277.19;2062545;28;20181;-64
2021/05/03 03:17:50;;;;;;;2.77;2.43;;;;;;;18.45;51.10;100283.56;2063114;28;20180;-64
2021/05/03 03:18:52;;;;;;;2.67;2.30;;;;;;;18.49;50.98;100273.19;2060811;28;20026;-64
2021/05/03 03:19:53;;;;;;;2.83;2.50;;;;;;;18.46;50.96;100284.41;2062641;28;20710;-64
2021/05/03 03:20:53;;;;;;;3.93;3.10;;;;;;;18.47;50.99;100275.19;2062451;28;20058;-64
2021/05/03 03:21:54;;;;;;;3.20;2.43;;;;;;;18.48;50.90;100274.22;2062174;28;20030;-64
2021/05/03 03:22:55;;;;;;;3.90;2.73;;;;;;;18.47;51.09;100280.66;2057806;28;20034;-64
2021/05/03 03:23:56;;;;;;;3.30;2.40;;;;;;;18.48;50.99;100279.66;2062640;28;20034;-64
2021/05/03 03:24:56;;;;;;;3.67;2.60;;;;;;;18.48;51.02;100276.94;2056742;28;20044;-64
2021/05/03 03:25:57;;;;;;;3.27;2.70;;;;;;;18.47;50.87;100280.66;2062618;28;20061;-64
2021/05/03 03:26:57;;;;;;;3.47;2.57;;;;;;;18.47;50.92;100280.66;2062424;28;20037;-64
2021/05/03 03:27:58;;;;;;;3.03;2.53;;;;;;;18.47;50.99;100280.66;2062406;28;20033;-64
2021/05/03 03:28:58;;;;;;;3.57;2.30;;;;;;;18.48;51.02;100288.72;2062277;28;20030;-64
2021/05/03 03:29:59;;;;;;;3.40;2.33;;;;;;;18.46;51.04;100285.25;2059442;28;20034;-64
2021/05/03 03:31:00;;;;;;;2.80;2.47;;;;;;;18.46;51.04;100278.94;2062327;28;20027;-64
2021/05/03 03:32:00;;;;;;;3.77;2.70;;;;;;;18.47;51.01;100280.66;2062515;28;20168;-64
2021/05/03 03:33:01;;;;;;;2.57;2.03;;;;;;;18.48;50.84;100277.78;2062926;28;20771;-64
2021/05/03 03:34:01;;;;;;;2.63;2.27;;;;;;;18.47;50.93;100280.66;2062375;28;20184;-64
2021/05/03 03:35:02;;;;;;;3.37;2.60;;;;;;;18.47;50.71;100286.13;2063289;28;20030;-64
2021/05/03 03:36:05;;;;;;;3.50;2.43;;;;;;;18.47;50.88;100287.00;2060812;28;20521;-64
2021/05/03 03:37:05;;;;;;;3.22;2.13;;;;;;;18.48;50.78;100279.66;2061688;28;20834;-64
2021/05/03 03:38:06;;;;;;;4.07;2.53;;;;;;;18.47;50.67;100277.94;2062587;28;20477;-64
2021/05/03 03:39:07;;;;;;;3.80;2.60;;;;;;;18.47;50.62;100287.00;2062864;28;20711;-64
2021/05/03 03:40:09;;;;;;;3.03;2.43;;;;;;;18.48;50.61;100283.25;2059070;28;20039;-64
2021/05/03 03:41:10;;;;;;;3.22;2.45;;;;;;;18.46;50.63;100278.94;2061377;28;20042;-64
2021/05/03 03:42:10;;;;;;;2.60;2.10;;;;;;;18.46;50.68;100282.53;2062493;28;20038;-64
2021/05/03 03:43:12;;;;;;;3.53;2.50;;;;;;;18.46;50.79;100284.41;2062135;28;20026;-64
2021/05/03 03:44:12;;;;;;;2.83;2.30;;;;;;;18.45;50.85;100285.38;2062448;28;20105;-65
2021/05/03 03:45:15;;;;;;;3.67;2.70;;;;;;;18.45;50.68;100282.66;2062634;28;20030;-64
2021/05/03 03:46:20;;;;;;;3.55;2.10;;;;;;;18.45;50.60;100286.28;2056340;28;20561;-64
2021/05/03 03:47:20;;;;;;;3.28;2.60;;;;;;;18.45;50.46;100280.81;2060987;28;20026;-63
2021/05/03 03:48:21;;;;;;;2.83;2.50;;;;;;;18.45;50.74;100289.00;2060964;28;20108;-64
2021/05/03 03:49:22;;;;;;;5.07;2.33;;;;;;;18.46;50.68;100287.13;2060551;28;20038;-63
2021/05/03 03:50:22;;;;;;;4.40;2.50;;;;;;;18.45;50.48;100293.56;2062910;28;20030;-64
2021/05/03 03:51:24;;;;;;;3.00;2.23;;;;;;;18.44;50.62;100290.00;2061255;28;20041;-63
2021/05/03 03:52:24;;;;;;;3.22;2.20;;;;;;;18.46;50.70;100289.88;2062901;28;20026;-63
2021/05/03 03:53:25;;;;;;;2.83;2.33;;;;;;;18.45;50.54;100282.66;2059986;28;20045;-63
2021/05/03 03:54:25;;;;;;;3.23;2.37;;;;;;;18.45;50.61;100293.56;2059802;28;20444;-64
2021/05/03 03:55:27;;;;;;;3.17;2.27;;;;;;;18.43;50.53;100294.59;2055056;28;20081;-64
2021/05/03 03:56:28;;;;;;;2.92;2.53;;;;;;;18.43;50.57;100291.88;2058888;28;20133;-63
2021/05/03 03:57:29;;;;;;;4.20;2.40;;;;;;;18.43;50.44;100289.13;2062258;28;20194;-63
2021/05/03 03:58:30;;;;;;;2.97;2.55;;;;;;;18.41;50.63;100288.41;2057505;28;20057;-64
2021/05/03 03:59:33;;;;;;;2.93;2.17;;;;;;;18.41;50.50;100282.94;2057224;28;20030;-63
2021/05/03 04:00:34;;;;;;;3.15;2.47;;;;;;;18.42;50.61;100283.81;2060122;28;20035;-63
2021/05/03 04:01:36;;;;;;;4.50;2.60;;;;;;;18.41;50.74;100287.56;2062282;28;20038;-66
2021/05/03 04:02:37;;;;;;;3.05;2.25;;;;;;;18.40;50.60;100281.25;2061543;28;20026;-66
2021/05/03 04:03:48;;;;;;;4.00;2.30;;;;;;;18.40;50.70;100292.16;2060006;28;20220;-63
2021/05/03 04:05:27;;;;;;;2.50;2.00;;;;;;;18.41;50.70;100291.13;2062626;28;20537;-63
2021/05/03 04:07:28;;;;;;;;;;;;;;;18.35;50.61;100288.13;2062959;28;20037;-64
2021/05/03 04:08:44;;;;;;;5.18;2.55;;;;;;;18.36;50.75;100285.25;2062134;28;19928;-64
2021/05/03 04:12:53;;;;;;;3.63;2.60;;;;;;;18.34;50.77;100281.78;2058741;28;20034;-64
2021/05/03 04:25:10;;;;;;;3.40;2.35;;;;;;;18.37;51.02;100284.25;2056647;28;20379;-64
2021/05/03 04:26:12;;;;;;;3.20;2.38;;;;;;;18.39;50.90;100281.38;2056597;28;22016;-63
2021/05/03 04:27:12;;;;;;;2.85;2.08;;;;;;;18.40;50.90;100285.84;2062540;28;20102;-63
2021/05/03 04:28:12;;;;;;;3.30;2.43;;;;;;;18.40;50.94;100285.84;2061109;28;20037;-63
2021/05/03 04:29:13;;;;;;;2.53;2.03;;;;;;;18.42;50.79;100290.16;2062949;28;20056;-63
2021/05/03 04:30:14;;;;;;;2.93;2.20;;;;;;;18.40;50.84;100286.69;2062020;28;20637;-64
2021/05/03 04:31:15;;;;;;;3.20;2.47;;;;;;;18.41;50.92;100285.69;2061502;28;20026;-63
2021/05/03 04:32:15;;;;;;;4.40;1.95;;;;;;;18.43;50.78;100285.56;2061940;28;20054;-64
2021/05/03 04:33:16;;;;;;;2.77;2.50;;;;;;;18.41;50.88;100288.41;2060182;28;20042;-63
2021/05/03 04:34:16;;;;;;;3.10;2.37;;;;;;;18.41;50.80;100288.41;2062822;28;20030;-64
2021/05/03 04:35:17;;;;;;;3.20;2.57;;;;;;;18.42;50.72;100290.16;2060495;28;20019;-64
2021/05/03 04:36:18;;;;;;;4.07;2.73;;;;;;;18.42;50.54;100294.72;2061775;28;20471;-64
2021/05/03 04:37:19;;;;;;;2.95;2.35;;;;;;;18.41;50.81;100291.13;2062307;28;20076;-64
2021/05/03 04:38:19;;;;;;;3.03;2.23;;;;;;;18.43;50.71;100294.59;2058748;28;20034;-64
2021/05/03 04:39:19;;;;;;;2.67;2.13;;;;;;;18.42;50.81;100295.63;2058104;28;20056;-64
2021/05/03 04:40:20;;;;;;;2.50;2.20;;;;;;;18.43;50.60;100296.47;2061783;28;20018;-64
2021/05/03 04:41:20;;;;;;;2.77;2.03;;;;;;;18.42;50.87;100295.63;2061208;28;20064;-64
2021/05/03 04:42:21;;;;;;;2.23;1.97;;;;;;;18.43;50.72;100301.94;2062849;28;20109;-64
2021/05/03 04:43:22;;;;;;;3.13;2.27;;;;;;;18.41;50.64;100293.88;2063161;28;20026;-64
2021/05/03 04:44:23;;;;;;;3.10;2.03;;;;;;;18.43;50.54;100296.47;2064211;28;20141;-64
2021/05/03 04:45:24;;;;;;;2.73;2.10;;;;;;;18.43;50.60;100288.28;2063699;28;20173;-64
2021/05/03 04:46:24;;;;;;;2.70;1.93;;;;;;;18.42;50.61;100298.34;2063498;28;20045;-64
2021/05/03 04:47:25;;;;;;;2.50;1.87;;;;;;;18.43;50.57;100296.47;2063291;28;20034;-63
2021/05/03 04:48:27;;;;;;;2.80;2.27;;;;;;;18.45;50.56;100301.75;2062686;28;20030;-64
2021/05/03 04:49:27;;;;;;;2.55;1.85;;;;;;;18.44;50.58;100303.63;2056616;28;20584;-63
2021/05/03 04:50:28;;;;;;;2.90;2.27;;;;;;;18.42;50.47;100306.53;2061733;28;20692;-64
2021/05/03 04:51:28;;;;;;;3.67;2.37;;;;;;;18.42;50.46;100301.06;2063780;28;20049;-64
2021/05/03 04:52:29;;;;;;;2.73;2.17;;;;;;;18.42;50.41;100303.81;2056148;28;20390;-64
2021/05/03 04:53:29;;;;;;;2.37;2.10;;;;;;;18.41;50.54;100304.78;2058109;28;20029;-63
2021/05/03 04:54:30;;;;;;;3.93;2.17;;;;;;;18.41;50.45;100299.31;2062063;28;20019;-64
2021/05/03 04:55:31;;;;;;;2.77;2.03;;;;;;;18.41;50.36;100304.78;2062491;28;20145;-64
2021/05/03 04:56:31;;;;;;;3.33;2.23;;;;;;;18.42;50.49;100302.91;2063934;28;20141;-64
2021/05/03 04:57:32;;;;;;;2.97;2.40;;;;;;;18.41;50.44;100299.31;2059409;28;20049;-64
2021/05/03 04:58:33;;;;;;;2.50;2.03;;;;;;;18.41;50.29;100307.50;2060370;28;20018;-64
2021/05/03 04:59:33;;;;;;;2.13;1.87;;;;;;;18.41;50.54;100310.25;2063663;28;20041;-63
2021/05/03 05:00:34;;;;;;;2.00;1.80;;;;;;;18.41;50.33;100303.94;2063009;28;20105;-64